Time;durP1;ratioP1;P1;durP2;ratioP2;P2;SDS_P1;SDS_P2;PMS_P1;PMS_P2;Temp;Humidity;BMP_temperature;BMP_pressure;BME280_temperature;BME280_humidity;BME280_pressure;Samples;Min_cycle;Max_cycle;Signal;HPM_P1;HPM_P2
2021/08/18 00:01:00;;;;;;;19.27;13.47;;;14.60;99.90;;;;;;5109051;28;20764;-68
2021/08/18 00:03:28;;;;;;;19.70;13.03;;;14.60;99.90;;;;;;5109778;28;20448;-68
2021/08/18 00:05:57;;;;;;;22.53;13.67;;;14.60;99.90;;;;;;5109659;28;20548;-68
2021/08/18 00:08:24;;;;;;;22.90;13.23;;;14.60;99.90;;;;;;5109787;28;20520;-69
2021/08/18 00:10:51;;;;;;;18.77;13.27;;;14.60;99.90;;;;;;5108737;28;20457;-69
2021/08/18 00:13:19;;;;;;;18.20;13.27;;;14.60;99.90;;;;;;5110067;28;20441;-68
2021/08/18 00:15:46;;;;;;;23.30;15.53;;;14.60;99.90;;;;;;5109332;28;20443;-69
2021/08/18 00:18:13;;;;;;;19.23;13.03;;;14.60;99.90;;;;;;5109575;28;20477;-69
2021/08/18 00:20:40;;;;;;;23.73;14.20;;;14.60;99.90;;;;;;5108551;28;20898;-68
2021/08/18 00:23:08;;;;;;;20.37;12.43;;;14.60;99.90;;;;;;5109618;28;20462;-69
2021/08/18 00:25:35;;;;;;;18.63;13.03;;;14.60;99.90;;;;;;5109615;28;20531;-68
2021/08/18 00:28:02;;;;;;;23.70;13.80;;;14.60;99.90;;;;;;5113506;28;20521;-69
2021/08/18 00:30:29;;;;;;;19.17;12.43;;;14.70;99.90;;;;;;5112487;28;20539;-68
2021/08/18 00:32:56;;;;;;;21.43;13.30;;;14.70;99.90;;;;;;5113627;28;20539;-68
2021/08/18 00:35:23;;;;;;;17.73;12.20;;;14.70;99.90;;;;;;5113165;28;20541;-69
2021/08/18 00:37:50;;;;;;;22.40;13.90;;;14.70;99.90;;;;;;5113241;28;21053;-69
2021/08/18 00:40:19;;;;;;;20.80;14.20;;;14.70;99.90;;;;;;5112558;28;20557;-69
2021/08/18 00:42:47;;;;;;;19.60;12.17;;;14.70;99.90;;;;;;5111304;28;20809;-69
2021/08/18 00:45:15;;;;;;;20.60;13.23;;;14.70;99.90;;;;;;5113460;28;20445;-69
2021/08/18 00:47:44;;;;;;;16.87;12.63;;;14.70;99.90;;;;;;5113396;28;20828;-69
2021/08/18 00:50:13;;;;;;;19.70;13.20;;;14.70;99.90;;;;;;5111998;28;20887;-69
2021/08/18 00:52:40;;;;;;;21.77;14.30;;;14.80;99.90;;;;;;5113230;28;20536;-69
2021/08/18 00:55:10;;;;;;;20.57;13.30;;;14.80;99.90;;;;;;5112806;28;20442;-69
2021/08/18 00:57:39;;;;;;;18.03;13.00;;;14.80;99.90;;;;;;5112691;28;20453;-69
2021/08/18 01:00:07;;;;;;;21.33;12.87;;;14.80;99.90;;;;;;5112202;28;20477;-69
2021/08/18 01:02:37;;;;;;;19.53;13.37;;;14.80;99.90;;;;;;5112705;28;20540;-69
2021/08/18 01:05:05;;;;;;;19.80;12.57;;;14.80;99.90;;;;;;5112717;28;20959;-69
2021/08/18 01:07:33;;;;;;;17.30;11.70;;;14.80;99.90;;;;;;5112911;28;20889;-69
2021/08/18 01:10:00;;;;;;;19.73;12.60;;;14.90;99.90;;;;;;5111652;28;20943;-69
2021/08/18 01:12:27;;;;;;;20.10;14.23;;;14.80;99.90;;;;;;5112763;28;20447;-69
2021/08/18 01:14:56;;;;;;;19.20;13.33;;;14.80;99.90;;;;;;5112396;28;20699;-69
2021/08/18 01:17:23;;;;;;;18.47;13.10;;;14.80;99.90;;;;;;5113021;28;20441;-69
2021/08/18 01:19:50;;;;;;;22.90;13.30;;;14.90;99.90;;;;;;5111277;28;20477;-68
2021/08/18 01:22:17;;;;;;;18.37;12.37;;;14.90;99.90;;;;;;5112182;28;20819;-68
2021/08/18 01:24:44;;;;;;;16.83;12.80;;;14.80;99.90;;;;;;5111729;28;20445;-67
2021/08/18 01:27:10;;;;;;;17.53;12.73;;;14.80;99.90;;;;;;5112234;28;20928;-68
2021/08/18 01:29:39;;;;;;;19.03;13.33;;;14.80;99.90;;;;;;5111450;28;20439;-68
2021/08/18 01:32:06;;;;;;;20.30;13.53;;;14.80;99.90;;;;;;5112157;28;20883;-68
2021/08/18 01:34:35;;;;;;;21.53;13.47;;;14.90;99.90;;;;;;5111728;28;20445;-68
2021/08/18 01:37:03;;;;;;;19.00;13.17;;;14.90;99.90;;;;;;5111514;28;20449;-68
2021/08/18 01:39:30;;;;;;;19.50;12.83;;;14.90;99.90;;;;;;5111011;28;20837;-68
2021/08/18 01:41:56;;;;;;;21.03;14.33;;;14.90;99.90;;;;;;5111985;28;20457;-67
2021/08/18 01:44:23;;;;;;;17.97;13.13;;;15.00;99.90;;;;;;5111631;28;20532;-68
2021/08/18 01:46:52;;;;;;;20.23;13.00;;;15.00;99.90;;;;;;5111885;28;20445;-67
2021/08/18 01:49:19;;;;;;;18.17;12.47;;;15.00;99.90;;;;;;5111037;28;20531;-68
2021/08/18 01:51:46;;;;;;;20.00;14.20;;;15.00;99.90;;;;;;5111558;28;20465;-68
2021/08/18 01:54:13;;;;;;;17.93;13.23;;;15.00;99.90;;;;;;5111662;28;20531;-68
2021/08/18 01:56:40;;;;;;;16.70;11.57;;;15.10;99.90;;;;;;5111560;28;20911;-68
2021/08/18 01:59:06;;;;;;;15.90;11.30;;;15.00;99.90;;;;;;5110920;28;20584;-68
2021/08/18 02:01:33;;;;;;;17.33;12.27;;;15.00;99.90;;;;;;5111359;28;20485;-68
2021/08/18 02:04:02;;;;;;;20.00;12.60;;;15.00;99.90;;;;;;5111693;28;20449;-68
2021/08/18 02:06:31;;;;;;;16.80;12.63;;;15.00;99.90;;;;;;5111042;28;20823;-68
2021/08/18 02:08:58;;;;;;;18.20;13.17;;;15.00;99.90;;;;;;5110815;28;20894;-68
2021/08/18 02:11:25;;;;;;;20.57;12.40;;;15.00;99.90;;;;;;5111395;28;20476;-68
2021/08/18 02:13:52;;;;;;;17.63;11.83;;;15.00;99.90;;;;;;5113463;28;20445;-69
2021/08/18 02:16:19;;;;;;;18.50;12.20;;;15.10;99.90;;;;;;5111123;28;20825;-68
2021/08/18 02:18:46;;;;;;;19.60;11.87;;;15.00;99.90;;;;;;5111041;28;20477;-69
2021/08/18 02:21:14;;;;;;;16.83;12.70;;;15.00;99.90;;;;;;5110814;28;20461;-68
2021/08/18 02:23:41;;;;;;;16.20;12.07;;;15.00;99.90;;;;;;5111385;28;20445;-68
2021/08/18 02:26:08;;;;;;;17.63;12.67;;;15.00;99.90;;;;;;5110739;28;20969;-68
2021/08/18 02:28:34;;;;;;;20.37;12.47;;;15.00;99.90;;;;;;5111312;28;20536;-68
2021/08/18 02:31:01;;;;;;;16.00;12.20;;;15.00;99.90;;;;;;5110874;28;20473;-68
2021/08/18 02:33:28;;;;;;;17.70;11.53;;;15.10;99.90;;;;;;5110810;28;20487;-68
2021/08/18 02:35:55;;;;;;;20.27;13.17;;;15.00;99.90;;;;;;5111018;28;20524;-69
2021/08/18 02:38:23;;;;;;;16.00;11.43;;;15.00;99.90;;;;;;5110878;28;20448;-68
2021/08/18 02:40:50;;;;;;;18.30;10.80;;;15.00;99.90;;;;;;5110026;28;20838;-68
2021/08/18 02:43:17;;;;;;;15.50;12.03;;;15.00;99.90;;;;;;5110635;28;20481;-68
2021/08/18 02:45:45;;;;;;;15.13;11.00;;;15.10;99.90;;;;;;5110195;28;20441;-68
2021/08/18 02:48:12;;;;;;;12.87;9.60;;;15.10;99.90;;;;;;5111023;28;20456;-68
2021/08/18 02:50:38;;;;;;;14.50;10.83;;;15.10;99.90;;;;;;5108849;28;20465;-68
2021/08/18 02:53:05;;;;;;;14.10;10.47;;;15.10;99.90;;;;;;5110782;28;20441;-68
2021/08/18 02:55:34;;;;;;;15.23;10.17;;;15.00;99.90;;;;;;5110559;28;20451;-68
2021/08/18 02:58:00;;;;;;;14.80;10.47;;;15.00;99.90;;;;;;5110683;28;20444;-68
2021/08/18 03:00:28;;;;;;;17.87;10.60;;;15.00;99.90;;;;;;5109465;28;21006;-68
2021/08/18 03:02:55;;;;;;;16.87;10.63;;;15.10;99.90;;;;;;5110743;28;20869;-68
2021/08/18 03:05:21;;;;;;;16.57;10.90;;;15.10;99.90;;;;;;5110088;28;20477;-68
2021/08/18 03:07:48;;;;;;;14.10;9.70;;;15.10;99.90;;;;;;5110807;28;20490;-68
2021/08/18 03:10:15;;;;;;;14.27;9.47;;;15.10;99.90;;;;;;5109380;28;20467;-68
2021/08/18 03:12:44;;;;;;;16.63;10.57;;;15.10;99.90;;;;;;5110339;28;20488;-68
2021/08/18 03:15:12;;;;;;;12.43;9.43;;;15.10;99.90;;;;;;5109796;28;20451;-68
2021/08/18 03:17:39;;;;;;;15.23;9.67;;;15.10;99.90;;;;;;5110237;28;20441;-68
2021/08/18 03:20:07;;;;;;;14.23;10.10;;;15.10;99.90;;;;;;5109256;28;20491;-68
2021/08/18 03:22:36;;;;;;;13.87;9.47;;;15.10;99.90;;;;;;5109760;28;21002;-68
2021/08/18 03:25:04;;;;;;;12.60;9.10;;;15.10;99.90;;;;;;5109632;28;20947;-68
2021/08/18 03:27:31;;;;;;;13.50;9.30;;;15.00;99.90;;;;;;5110262;28;20824;-68
2021/08/18 03:29:59;;;;;;;13.77;10.00;;;15.10;99.90;;;;;;5109083;28;20521;-68
2021/08/18 03:32:27;;;;;;;15.93;10.40;;;15.10;99.90;;;;;;5110128;28;20452;-68
2021/08/18 03:34:53;;;;;;;13.53;10.10;;;15.10;99.90;;;;;;5109641;28;20951;-67
2021/08/18 03:37:20;;;;;;;15.60;10.50;;;15.00;99.90;;;;;;5109943;28;20449;-68
2021/08/18 03:39:47;;;;;;;18.53;11.30;;;15.10;99.90;;;;;;5108907;28;20481;-68
2021/08/18 03:42:14;;;;;;;15.53;10.43;;;15.00;99.90;;;;;;5109981;28;20503;-68
2021/08/18 03:44:41;;;;;;;12.60;9.50;;;15.10;99.90;;;;;;5109506;28;20441;-68
2021/08/18 03:47:09;;;;;;;15.60;10.07;;;15.10;99.90;;;;;;5109762;28;20437;-68
2021/08/18 03:49:36;;;;;;;11.93;8.67;;;15.10;99.90;;;;;;5109121;28;20456;-68
2021/08/18 03:52:04;;;;;;;13.70;9.60;;;15.20;99.90;;;;;;5110232;28;20469;-68
2021/08/18 03:54:30;;;;;;;12.50;9.73;;;15.20;99.90;;;;;;5109193;28;20449;-68
2021/08/18 03:56:57;;;;;;;12.20;8.47;;;15.20;99.90;;;;;;5110133;28;20470;-68
2021/08/18 03:59:27;;;;;;;12.87;9.40;;;15.20;99.90;;;;;;5109165;28;20477;-68
2021/08/18 04:01:54;;;;;;;12.77;9.13;;;15.20;99.90;;;;;;5112612;28;20849;-69
2021/08/18 04:04:22;;;;;;;11.20;7.80;;;15.20;99.90;;;;;;5113704;28;20762;-68
2021/08/18 04:06:49;;;;;;;11.00;7.37;;;15.20;99.90;;;;;;5114015;28;20540;-68
2021/08/18 04:09:15;;;;;;;11.63;8.60;;;15.20;99.90;;;;;;5113322;28;20445;-68
2021/08/18 04:11:42;;;;;;;10.40;7.50;;;15.10;99.90;;;;;;5113813;28;20487;-68
2021/08/18 04:14:11;;;;;;;10.40;8.00;;;15.10;99.90;;;;;;5113641;28;20540;-68
2021/08/18 04:16:38;;;;;;;11.10;7.87;;;15.10;99.90;;;;;;5113452;28;20483;-68
2021/08/18 04:19:05;;;;;;;10.90;7.07;;;15.20;99.90;;;;;;5112970;28;20459;-69
2021/08/18 04:21:33;;;;;;;9.37;7.20;;;15.20;99.90;;;;;;5113209;28;20483;-68
2021/08/18 04:24:00;;;;;;;11.23;7.50;;;15.20;99.90;;;;;;5113484;28;20808;-68
2021/08/18 04:26:27;;;;;;;8.53;7.00;;;15.20;99.90;;;;;;5113274;28;20445;-68
2021/08/18 04:28:54;;;;;;;10.73;7.40;;;15.10;99.90;;;;;;5113274;28;20893;-68
2021/08/18 04:31:21;;;;;;;11.03;7.97;;;15.20;99.90;;;;;;5113020;28;20960;-68
2021/08/18 04:33:48;;;;;;;11.60;7.00;;;15.20;99.90;;;;;;5113546;28;20474;-68
2021/08/18 04:36:16;;;;;;;10.40;7.80;;;15.10;99.90;;;;;;5112558;28;20540;-67
2021/08/18 04:38:44;;;;;;;9.50;6.73;;;15.10;99.90;;;;;;5113452;28;20453;-68
2021/08/18 04:41:12;;;;;;;9.17;6.80;;;15.10;99.90;;;;;;5112329;28;20495;-68
2021/08/18 04:43:39;;;;;;;10.70;6.40;;;15.10;99.90;;;;;;5113322;28;20447;-68
2021/08/18 04:46:06;;;;;;;12.17;6.50;;;15.10;99.90;;;;;;5112777;28;20761;-68
2021/08/18 04:48:33;;;;;;;11.43;7.27;;;15.10;99.90;;;;;;5113242;28;20520;-68
2021/08/18 04:51:02;;;;;;;9.43;6.53;;;15.10;99.90;;;;;;5112474;28;20471;-67
2021/08/18 04:53:29;;;;;;;11.40;6.77;;;15.10;99.90;;;;;;5113487;28;20456;-68
2021/08/18 04:55:58;;;;;;;12.77;7.10;;;15.00;99.90;;;;;;5112959;28;20908;-67
2021/08/18 04:58:24;;;;;;;8.57;6.03;;;15.00;99.90;;;;;;5112867;28;20447;-68
2021/08/18 05:00:51;;;;;;;10.83;6.30;;;15.00;99.90;;;;;;5112386;28;20495;-68
2021/08/18 05:03:18;;;;;;;9.20;6.03;;;15.00;99.90;;;;;;5112971;28;20467;-68
2021/08/18 05:05:45;;;;;;;9.53;6.20;;;15.10;99.90;;;;;;5112484;28;20445;-68
2021/08/18 05:08:12;;;;;;;8.63;5.97;;;15.10;99.90;;;;;;5113133;28;20449;-68
2021/08/18 05:10:39;;;;;;;8.80;5.90;;;15.10;99.90;;;;;;5111893;28;20471;-68
2021/08/18 05:13:08;;;;;;;6.53;4.90;;;15.10;99.90;;;;;;5111600;28;20935;-68
2021/08/18 05:15:35;;;;;;;7.77;4.90;;;15.10;99.90;;;;;;5112190;28;20449;-67
2021/08/18 05:18:02;;;;;;;7.20;5.13;;;15.10;99.90;;;;;;5112913;28;20445;-68
2021/08/18 05:20:29;;;;;;;9.27;5.70;;;15.10;99.90;;;;;;5111242;28;20890;-68
2021/08/18 05:22:57;;;;;;;10.17;5.00;;;15.10;99.90;;;;;;5112590;28;20925;-67
2021/08/18 05:25:23;;;;;;;6.70;4.40;;;15.10;99.90;;;;;;5112242;28;20816;-68
2021/08/18 05:27:50;;;;;;;6.03;4.40;;;15.10;99.90;;;;;;5112437;28;20816;-67
2021/08/18 05:30:19;;;;;;;7.87;4.90;;;15.10;99.90;;;;;;5111136;28;20560;-68
2021/08/18 05:32:45;;;;;;;9.43;5.73;;;15.10;99.90;;;;;;5112297;28;20447;-68
2021/08/18 05:35:15;;;;;;;7.10;5.30;;;15.10;99.90;;;;;;5111845;28;20447;-67
2021/08/18 05:37:44;;;;;;;9.20;6.57;;;15.10;99.90;;;;;;5112043;28;20854;-68
2021/08/18 05:40:11;;;;;;;8.97;5.80;;;15.10;99.90;;;;;;5111210;28;20493;-68
2021/08/18 05:42:38;;;;;;;8.60;5.70;;;15.10;99.90;;;;;;5112216;28;20454;-68
2021/08/18 05:45:07;;;;;;;10.90;6.20;;;15.10;99.90;;;;;;5111324;28;20438;-68
2021/08/18 05:47:35;;;;;;;9.50;6.23;;;15.10;99.90;;;;;;5111790;28;20471;-68
2021/08/18 05:50:03;;;;;;;9.30;5.80;;;15.00;99.90;;;;;;5111230;28;20472;-68
2021/08/18 05:52:29;;;;;;;8.97;6.60;;;15.00;99.90;;;;;;5111799;28;20476;-67
2021/08/18 05:55:00;;;;;;;8.63;6.00;;;15.00;99.90;;;;;;5111801;28;20449;-68
2021/08/18 05:57:27;;;;;;;9.07;6.50;;;15.00;99.90;;;;;;5111715;28;20447;-68
2021/08/18 05:59:55;;;;;;;9.23;6.87;;;15.00;99.90;;;;;;5110875;28;20477;-68
2021/08/18 06:02:21;;;;;;;11.40;6.97;;;15.00;99.90;;;;;;5111767;28;20530;-68
2021/08/18 06:04:50;;;;;;;9.87;6.77;;;15.00;99.90;;;;;;5111412;28;20533;-68
2021/08/18 06:07:17;;;;;;;9.87;7.57;;;15.10;99.90;;;;;;5111338;28;20450;-68
2021/08/18 06:09:43;;;;;;;10.30;6.10;;;15.10;99.90;;;;;;5111008;28;20796;-68
2021/08/18 06:12:10;;;;;;;13.80;7.07;;;15.20;99.90;;;;;;5111172;28;20465;-68
2021/08/18 06:14:38;;;;;;;11.43;7.30;;;15.30;99.90;;;;;;5111243;28;20473;-68
2021/08/18 06:17:05;;;;;;;10.37;6.80;;;15.30;99.90;;;;;;5111207;28;21080;-68
2021/08/18 06:19:32;;;;;;;9.03;6.57;;;15.50;99.90;;;;;;5110323;28;20457;-68
2021/08/18 06:22:01;;;;;;;8.30;6.40;;;15.60;99.90;;;;;;5111048;28;20464;-67
2021/08/18 06:24:29;;;;;;;8.10;6.30;;;15.80;99.90;;;;;;5110341;28;20923;-68
2021/08/18 06:26:58;;;;;;;7.20;5.33;;;16.00;99.90;;;;;;5111078;27;20473;-68
2021/08/18 06:29:28;;;;;;;9.53;5.00;;;16.00;99.90;;;;;;5110383;28;20444;-67
2021/08/18 06:31:55;;;;;;;9.10;5.60;;;16.10;99.90;;;;;;5111157;28;20777;-68
2021/08/18 06:34:22;;;;;;;6.90;4.80;;;16.10;99.90;;;;;;5110710;28;20827;-68
2021/08/18 06:36:49;;;;;;;6.87;3.63;;;16.10;99.90;;;;;;5111138;28;20528;-68
2021/08/18 06:39:17;;;;;;;5.50;3.53;;;16.10;99.90;;;;;;5110089;28;20446;-68
2021/08/18 06:41:44;;;;;;;5.40;4.43;;;16.10;99.90;;;;;;5109732;28;20485;-68
2021/08/18 06:44:11;;;;;;;4.80;3.00;;;16.10;99.90;;;;;;5110878;28;20442;-67
2021/08/18 06:46:38;;;;;;;5.00;3.17;;;16.20;99.90;;;;;;5110542;28;20452;-68
2021/08/18 06:49:04;;;;;;;5.03;3.37;;;16.30;99.90;;;;;;5110429;28;20518;-68
2021/08/18 06:51:31;;;;;;;5.93;3.60;;;16.50;99.90;;;;;;5110636;28;21050;-67
2021/08/18 06:53:58;;;;;;;8.73;3.30;;;16.70;99.90;;;;;;5110832;28;20784;-68
2021/08/18 06:56:27;;;;;;;4.57;3.20;;;16.90;99.90;;;;;;5110535;28;20525;-68
2021/08/18 06:58:54;;;;;;;5.07;3.47;;;16.70;99.90;;;;;;5110869;28;20446;-67
2021/08/18 07:01:20;;;;;;;5.27;3.60;;;16.50;99.90;;;;;;5109727;28;20483;-68
2021/08/18 07:03:47;;;;;;;4.33;3.10;;;16.40;99.90;;;;;;5110636;28;20889;-68
2021/08/18 07:06:14;;;;;;;5.60;3.73;;;16.30;99.90;;;;;;5110035;28;20532;-68
2021/08/18 07:08:41;;;;;;;6.80;3.37;;;16.40;99.90;;;;;;5110661;28;20473;-68
2021/08/18 07:11:08;;;;;;;6.67;3.83;;;16.40;99.90;;;;;;5109830;28;20480;-68
2021/08/18 07:13:36;;;;;;;7.10;3.70;;;16.50;99.90;;;;;;5110632;28;20464;-68
2021/08/18 07:16:03;;;;;;;6.57;3.07;;;16.70;99.90;;;;;;5110099;28;20540;-68
2021/08/18 07:18:30;;;;;;;5.90;3.20;;;16.80;99.90;;;;;;5110385;28;20464;-68
2021/08/18 07:20:57;;;;;;;5.80;3.97;;;16.90;99.90;;;;;;5109558;28;20529;-68
2021/08/18 07:23:24;;;;;;;5.67;3.80;;;17.00;99.90;;;;;;5110079;28;20446;-67
2021/08/18 07:25:51;;;;;;;7.67;3.70;;;17.20;99.90;;;;;;5109806;28;20437;-68
2021/08/18 07:28:17;;;;;;;5.20;4.03;;;17.30;99.90;;;;;;5110272;28;20437;-68
2021/08/18 07:30:46;;;;;;;5.10;3.43;;;17.40;99.90;;;;;;5109040;28;20530;-68
2021/08/18 07:33:13;;;;;;;5.20;3.70;;;17.60;99.90;;;;;;5109940;28;20953;-68
2021/08/18 07:35:39;;;;;;;6.83;3.40;;;17.70;99.90;;;;;;5109247;28;20540;-68
2021/08/18 07:38:06;;;;;;;11.63;3.80;;;17.80;99.90;;;;;;5109940;28;20453;-68
2021/08/18 07:40:33;;;;;;;6.27;3.60;;;17.90;99.90;;;;;;5109299;27;20564;-68
2021/08/18 07:43:00;;;;;;;7.13;3.80;;;18.00;99.90;;;;;;5109779;28;20900;-68
2021/08/18 07:45:28;;;;;;;5.70;3.13;;;18.00;99.90;;;;;;5109497;28;20445;-68
2021/08/18 07:47:56;;;;;;;4.20;2.73;;;18.30;99.90;;;;;;5110095;28;20449;-68
2021/08/18 07:50:23;;;;;;;5.47;3.30;;;18.50;99.90;;;;;;5109027;28;20460;-68
2021/08/18 07:52:50;;;;;;;5.47;3.53;;;18.50;99.90;;;;;;5109945;28;20461;-68
2021/08/18 07:55:17;;;;;;;5.50;2.93;;;18.60;99.90;;;;;;5109535;28;20445;-68
2021/08/18 07:57:44;;;;;;;4.23;2.70;;;18.50;99.90;;;;;;5109636;28;20442;-68
2021/08/18 08:00:11;;;;;;;3.90;2.60;;;18.50;99.90;;;;;;5108880;28;20500;-68
2021/08/18 08:02:38;;;;;;;4.80;2.83;;;18.50;99.90;;;;;;5109209;28;20580;-68
2021/08/18 08:05:08;;;;;;;4.93;3.53;;;18.50;99.90;;;;;;5109273;28;20691;-68
2021/08/18 08:07:35;;;;;;;5.57;2.90;;;18.50;99.90;;;;;;5109483;28;20457;-68
2021/08/18 08:10:02;;;;;;;3.90;2.20;;;18.50;99.90;;;;;;5109162;28;20445;-68
2021/08/18 08:12:29;;;;;;;3.70;2.50;;;18.40;99.90;;;;;;5109742;28;20816;-68
2021/08/18 08:14:55;;;;;;;4.30;2.30;;;18.70;99.90;;;;;;5109216;28;20447;-68
2021/08/18 08:17:22;;;;;;;4.00;2.20;;;18.90;99.90;;;;;;5109452;28;20977;-68
2021/08/18 08:19:49;;;;;;;3.90;2.10;;;19.20;99.90;;;;;;5108725;28;20453;-69
2021/08/18 08:22:18;;;;;;;3.87;2.27;;;19.30;99.90;;;;;;5109039;28;20485;-69
2021/08/18 08:24:45;;;;;;;4.93;2.93;;;19.40;99.90;;;;;;5109309;28;20540;-68
2021/08/18 08:27:12;;;;;;;3.43;2.10;;;19.60;99.90;;;;;;5109357;28;20844;-69
2021/08/18 08:29:38;;;;;;;3.10;1.83;;;19.70;99.90;;;;;;5108871;28;20449;-69
2021/08/18 08:32:06;;;;;;;3.00;1.57;;;19.50;99.90;;;;;;5109424;28;20535;-69
2021/08/18 08:34:33;;;;;;;2.63;1.43;;;19.10;99.90;;;;;;5109088;28;20452;-69
2021/08/18 08:37:00;;;;;;;3.23;1.47;;;18.80;99.90;;;;;;5109586;28;20451;-69
2021/08/18 08:39:28;;;;;;;4.00;1.93;;;18.40;99.90;;;;;;5108629;28;20544;-68
2021/08/18 08:41:55;;;;;;;3.23;1.63;;;18.10;99.90;;;;;;5109187;28;20558;-68
2021/08/18 08:44:24;;;;;;;3.00;1.47;;;18.00;99.90;;;;;;5109144;28;20831;-68
2021/08/18 08:46:53;;;;;;;2.60;1.27;;;18.10;99.90;;;;;;5110190;28;20636;-69
2021/08/18 08:49:22;;;;;;;5.27;1.73;;;18.40;99.90;;;;;;5112478;28;20535;-69
2021/08/18 08:51:50;;;;;;;2.67;1.20;;;18.80;99.90;;;;;;5112821;28;20456;-69
2021/08/18 08:54:18;;;;;;;2.30;0.93;;;19.20;99.90;;;;;;5112407;28;20463;-69
2021/08/18 08:56:47;;;;;;;2.00;0.70;;;19.50;99.90;;;;;;5112875;28;20528;-69
2021/08/18 08:59:13;;;;;;;2.43;0.60;;;19.40;99.90;;;;;;5112148;28;21009;-68
2021/08/18 09:02:00;;;;;;;1.70;0.50;;;19.40;99.90;;;;;;5112670;28;20938;-67
2021/08/18 09:04:29;;;;;;;2.00;0.60;;;19.30;99.90;;;;;;5112436;28;21134;-67
2021/08/18 09:07:11;;;;;;;2.00;0.60;;;19.20;99.90;;;;;;5113077;28;20536;-69
2021/08/18 09:09:40;;;;;;;2.00;0.60;;;19.20;99.90;;;;;;5112235;28;20476;-69
2021/08/18 09:12:11;;;;;;;1.90;0.50;;;19.20;99.90;;;;;;5112902;28;20461;-69
2021/08/18 09:14:38;;;;;;;1.80;0.60;;;19.00;99.90;;;;;;5112692;28;20435;-69
2021/08/18 09:17:29;;;;;;;1.70;0.50;;;18.80;99.90;;;;;;5112555;28;20945;-69
2021/08/18 09:20:05;;;;;;;2.67;0.70;;;18.60;99.90;;;;;;5111824;28;20453;-68
2021/08/18 09:22:35;;;;;;;1.90;0.63;;;18.50;99.90;;;;;;5112610;28;20469;-68
2021/08/18 09:25:24;;;;;;;1.90;0.60;;;18.30;99.90;;;;;;5112697;28;20468;-68
2021/08/18 09:27:54;;;;;;;1.90;0.70;;;18.20;99.90;;;;;;5106903;27;20456;-68
2021/08/18 09:30:25;;;;;;;1.90;0.80;;;18.30;99.90;;;;;;5111874;28;21059;-68
2021/08/18 09:32:52;;;;;;;1.90;0.80;;;18.50;99.90;;;;;;5112721;28;20501;-68
2021/08/18 09:35:21;;;;;;;2.47;0.90;;;18.90;99.90;;;;;;5112223;28;20532;-68
2021/08/18 09:37:58;;;;;;;1.90;0.90;;;18.90;99.90;;;;;;5112515;28;20532;-68
2021/08/18 09:40:27;;;;;;;3.00;1.30;;;18.80;99.90;;;;;;5111615;28;20455;-68
2021/08/18 09:43:08;;;;;;;1.97;0.70;;;18.80;99.90;;;;;;5112186;28;20565;-68
2021/08/18 09:45:37;;;;;;;2.30;1.10;;;19.10;99.90;;;;;;5111898;28;20819;-68
2021/08/18 09:48:07;;;;;;;2.10;0.93;;;19.60;99.90;;;;;;5112570;28;20450;-68
2021/08/18 09:50:43;;;;;;;2.40;0.90;;;20.10;99.90;;;;;;5111465;28;20558;-69
2021/08/18 09:53:13;;;;;;;1.93;0.70;;;20.40;99.90;;;;;;5112255;28;20483;-68
2021/08/18 09:55:47;;;;;;;1.97;0.70;;;20.40;99.90;;;;;;5111590;28;20449;-68
2021/08/18 09:58:23;;;;;;;2.00;0.80;;;20.10;99.90;;;;;;5111483;28;20528;-68
2021/08/18 10:00:51;;;;;;;2.43;0.93;;;20.00;99.90;;;;;;5110862;28;20544;-68
2021/08/18 10:03:19;;;;;;;2.20;0.70;;;20.00;99.90;;;;;;5112095;28;20528;-68
2021/08/18 10:05:48;;;;;;;1.90;0.90;;;20.00;99.90;;;;;;5111489;28;20449;-68
2021/08/18 10:08:15;;;;;;;2.67;1.07;;;19.90;99.90;;;;;;5111657;28;20445;-68
2021/08/18 10:10:43;;;;;;;2.80;1.33;;;19.90;99.90;;;;;;5110849;28;20925;-68
2021/08/18 10:13:11;;;;;;;2.10;1.00;;;19.90;99.90;;;;;;5111617;28;20453;-68
2021/08/18 10:15:40;;;;;;;2.77;1.40;;;19.70;99.90;;;;;;5111269;28;20468;-68
2021/08/18 10:18:08;;;;;;;2.50;1.13;;;19.50;99.90;;;;;;5111875;28;20445;-68
2021/08/18 10:20:36;;;;;;;2.27;1.20;;;19.50;99.90;;;;;;5110909;28;20560;-68
2021/08/18 10:23:06;;;;;;;2.30;1.10;;;19.50;99.90;;;;;;5111312;28;20477;-68
2021/08/18 10:25:38;;;;;;;2.40;1.50;;;19.70;99.90;;;;;;5111114;28;20530;-68
2021/08/18 10:28:07;;;;;;;2.23;1.00;;;20.00;99.90;;;;;;5111185;28;20441;-68
2021/08/18 10:30:48;;;;;;;3.23;1.20;;;20.30;99.90;;;;;;5110193;28;20501;-68
2021/08/18 10:34:00;;;;;;;2.40;1.37;;;21.00;99.90;;;;;;5111287;28;20520;-68
2021/08/18 10:37:04;;;;;;;2.50;1.30;;;21.20;99.90;;;;;;5027481;28;20699;-68
2021/08/18 10:39:37;;;;;;;2.70;1.30;;;20.70;99.90;;;;;;5110254;28;21052;-68
2021/08/18 10:42:06;;;;;;;2.67;1.70;;;20.50;99.90;;;;;;5110942;28;20895;-68
2021/08/18 10:44:34;;;;;;;2.63;1.40;;;20.50;99.90;;;;;;5110461;28;20823;-68
2021/08/18 10:47:20;;;;;;;2.80;1.40;;;20.60;99.90;;;;;;5110946;27;20448;-69
2021/08/18 10:49:50;;;;;;;2.17;1.27;;;20.60;99.90;;;;;;5109963;28;20481;-68
2021/08/18 10:52:53;;;;;;;2.67;1.37;;;20.90;99.90;;;;;;5110590;28;20485;-67
2021/08/18 10:55:30;;;;;;;2.57;1.43;;;21.10;99.90;;;;;;5110534;28;20458;-68
2021/08/18 10:57:58;;;;;;;2.93;1.40;;;21.10;99.90;;;;;;5111136;28;20434;-68
2021/08/18 11:00:32;;;;;;;2.80;1.63;;;21.20;99.90;;;;;;5110153;28;20548;-68
2021/08/18 11:03:02;;;;;;;2.90;1.60;;;21.20;99.90;;;;;;5110722;28;20550;-68
2021/08/18 11:05:50;;;;;;;2.70;1.40;;;21.40;99.90;;;;;;5109914;28;20951;-68
2021/08/18 11:08:19;;;;;;;2.57;1.43;;;21.70;99.90;;;;;;5110332;28;20769;-68
2021/08/18 11:11:15;;;;;;;3.23;1.60;;;21.40;99.90;;;;;;5109022;28;20477;-68
2021/08/18 11:13:45;;;;;;;3.53;1.40;;;21.10;99.90;;;;;;5110064;28;20967;-68
2021/08/18 11:16:14;;;;;;;2.30;1.30;;;20.90;99.90;;;;;;5110256;27;20453;-68
2021/08/18 11:19:03;;;;;;;3.20;1.67;;;20.80;99.90;;;;;;5110175;28;20455;-68
2021/08/18 11:21:32;;;;;;;3.77;1.60;;;20.70;99.90;;;;;;5104251;28;20572;-68
2021/08/18 11:24:01;;;;;;;2.57;1.50;;;20.50;99.90;;;;;;5110058;28;20441;-67
2021/08/18 11:26:30;;;;;;;2.70;1.63;;;20.70;99.90;;;;;;5109952;28;20445;-68
2021/08/18 11:29:00;;;;;;;2.93;1.53;;;20.80;99.90;;;;;;5109570;28;20461;-68
2021/08/18 11:31:48;;;;;;;2.77;1.57;;;20.90;99.90;;;;;;5110427;28;20481;-68
2021/08/18 11:34:22;;;;;;;2.90;1.83;;;20.80;99.90;;;;;;5110010;28;20486;-68
2021/08/18 11:36:49;;;;;;;3.00;1.70;;;20.50;99.90;;;;;;5109896;28;20445;-68
2021/08/18 11:39:17;;;;;;;3.10;1.80;;;20.60;99.90;;;;;;5109479;28;20897;-67
2021/08/18 11:41:46;;;;;;;2.50;1.50;;;20.70;99.90;;;;;;5109922;28;20868;-68
2021/08/18 11:44:24;;;;;;;2.67;1.63;;;20.70;99.90;;;;;;5109951;28;20477;-68
2021/08/18 11:46:51;;;;;;;2.53;1.47;;;20.60;99.90;;;;;;5110116;28;20879;-68
2021/08/18 11:49:23;;;;;;;2.70;1.40;;;20.70;99.90;;;;;;5109545;28;20455;-68
2021/08/18 11:51:50;;;;;;;3.03;1.50;;;20.90;99.90;;;;;;5110204;28;20497;-68
2021/08/18 11:54:17;;;;;;;2.70;1.83;;;21.20;99.90;;;;;;5109602;28;20451;-68
2021/08/18 11:56:44;;;;;;;3.03;1.70;;;21.40;99.90;;;;;;5109880;28;20447;-68
2021/08/18 11:59:10;;;;;;;2.40;1.30;;;21.50;99.90;;;;;;5109472;28;20549;-68
2021/08/18 12:01:37;;;;;;;2.43;1.47;;;21.80;99.90;;;;;;5109270;28;20836;-68
2021/08/18 12:04:05;;;;;;;3.00;1.70;;;21.70;99.90;;;;;;5109766;28;20445;-68
2021/08/18 12:06:36;;;;;;;2.50;1.50;;;21.60;99.90;;;;;;5109589;28;20441;-68
2021/08/18 12:09:05;;;;;;;2.20;1.10;;;21.60;99.90;;;;;;5109607;28;20869;-68
2021/08/18 12:11:37;;;;;;;2.50;1.03;;;21.50;99.90;;;;;;5109912;28;20476;-69
2021/08/18 12:14:12;;;;;;;2.40;1.27;;;21.60;99.90;;;;;;5109395;28;20490;-69
2021/08/18 12:16:39;;;;;;;2.30;1.20;;;21.70;99.90;;;;;;5109354;28;20445;-68
2021/08/18 12:19:21;;;;;;;2.47;1.20;;;21.70;99.90;;;;;;5108685;28;20840;-68
2021/08/18 12:22:07;;;;;;;2.87;1.10;;;21.50;99.90;;;;;;5110204;28;20489;-68
2021/08/18 12:24:34;;;;;;;3.27;1.40;;;21.30;99.90;;;;;;5113041;28;20475;-68
2021/08/18 12:27:03;;;;;;;2.70;1.50;;;21.00;99.90;;;;;;5113778;28;20438;-68
2021/08/18 12:29:31;;;;;;;2.50;1.37;;;20.90;99.90;;;;;;5112444;28;20476;-68
2021/08/18 12:32:01;;;;;;;2.33;1.17;;;20.70;99.90;;;;;;5113661;28;20461;-68
2021/08/18 12:34:37;;;;;;;2.63;1.30;;;20.60;99.90;;;;;;5113464;28;20437;-68
2021/08/18 12:37:07;;;;;;;2.53;1.83;;;20.60;99.90;;;;;;5113156;28;20422;-68
2021/08/18 12:39:35;;;;;;;2.50;1.07;;;20.80;99.90;;;;;;5112577;28;20828;-68
2021/08/18 12:42:03;;;;;;;2.13;0.90;;;21.10;99.90;;;;;;5111189;28;21006;-68
2021/08/18 12:44:33;;;;;;;2.73;1.23;;;21.40;99.90;;;;;;5113212;28;20444;-68
2021/08/18 12:47:09;;;;;;;2.50;1.37;;;21.80;99.90;;;;;;5113160;28;20445;-68
2021/08/18 12:49:37;;;;;;;2.20;1.00;;;22.20;99.90;;;;;;5111994;28;20459;-68